Time;durP1;ratioP1;P1;durP2;ratioP2;P2;SDS_P1;SDS_P2;PMS_P1;PMS_P2;Temp;Humidity;BMP_temperature;BMP_pressure;BME280_temperature;BME280_humidity;BME280_pressure;Samples;Min_cycle;Max_cycle;Signal;HPM_P1;HPM_P2
2023/05/01 00:01:38;;;;;;;13.60;10.60;;;;;;;;;;5066552;28;20280;-51
2023/05/01 00:04:04;;;;;;;13.47;9.70;;;;;;;;;;5067774;28;20239;-53
2023/05/01 00:06:33;;;;;;;11.70;8.97;;;;;;;;;;5067360;28;20556;-53
2023/05/01 00:08:59;;;;;;;13.80;10.00;;;;;;;;;;5067635;28;20741;-53
2023/05/01 00:11:26;;;;;;;10.80;9.10;;;;;;;;;;5067799;28;20234;-52
2023/05/01 00:13:53;;;;;;;9.00;7.70;;;;;;;;;;5067443;28;20238;-52
2023/05/01 00:16:20;;;;;;;8.17;6.60;;;;;;;;;;5066507;28;20235;-53
2023/05/01 00:18:46;;;;;;;7.97;6.73;;;;;;;;;;5067082;28;20239;-52
2023/05/01 00:21:13;;;;;;;11.83;6.40;;;;;;;;;;5067557;28;20231;-53
2023/05/01 00:23:41;;;;;;;8.90;5.37;;;;;;;;;;5067738;28;20251;-52
2023/05/01 00:26:08;;;;;;;11.13;4.97;;;;;;;;;;5057631;28;20239;-52
2023/05/01 00:28:35;;;;;;;8.47;5.57;;;;;;;;;;5065003;28;20243;-53
2023/05/01 00:31:01;;;;;;;10.10;5.47;;;;;;;;;;5065625;28;20231;-52
2023/05/01 00:33:28;;;;;;;5.57;4.93;;;;;;;;;;5066171;28;20251;-53
2023/05/01 00:35:54;;;;;;;6.23;4.80;;;;;;;;;;5066727;28;20243;-52
2023/05/01 00:38:22;;;;;;;8.33;4.60;;;;;;;;;;5063578;28;20322;-52
2023/05/01 00:40:51;;;;;;;5.30;4.80;;;;;;;;;;5064023;28;20270;-52
2023/05/01 00:43:17;;;;;;;6.87;5.13;;;;;;;;;;5058768;28;20625;-53
2023/05/01 00:45:45;;;;;;;7.20;4.63;;;;;;;;;;5067649;28;20244;-53
2023/05/01 00:48:11;;;;;;;6.00;4.33;;;;;;;;;;5058091;28;20691;-52
2023/05/01 00:50:38;;;;;;;4.83;4.10;;;;;;;;;;5066752;28;20239;-52
2023/05/01 00:53:05;;;;;;;8.07;5.47;;;;;;;;;;5066420;28;20239;-53
2023/05/01 00:55:33;;;;;;;7.57;4.60;;;;;;;;;;5066897;28;20306;-52
2023/05/01 00:58:01;;;;;;;8.60;5.07;;;;;;;;;;5066602;28;20251;-52
2023/05/01 01:00:28;;;;;;;6.30;5.13;;;;;;;;;;5066417;28;20285;-53
2023/05/01 01:02:54;;;;;;;5.20;4.70;;;;;;;;;;5065903;28;20239;-52
2023/05/01 01:05:21;;;;;;;7.07;4.53;;;;;;;;;;5066781;28;20330;-52
2023/05/01 01:07:53;;;;;;;7.27;4.63;;;;;;;;;;5065658;28;20330;-52
2023/05/01 01:10:26;;;;;;;12.83;5.67;;;;;;;;;;5063463;28;20231;-52
2023/05/01 01:12:54;;;;;;;5.13;4.17;;;;;;;;;;5063214;28;20235;-51
2023/05/01 01:15:27;;;;;;;6.20;4.67;;;;;;;;;;5064959;28;20243;-53
2023/05/01 01:17:59;;;;;;;5.80;4.23;;;;;;;;;;5061918;28;20223;-52
2023/05/01 01:20:37;;;;;;;11.27;5.17;;;;;;;;;;5062141;28;20239;-52
2023/05/01 01:23:13;;;;;;;5.13;4.60;;;;;;;;;;5064489;28;20235;-53
2023/05/01 01:26:01;;;;;;;6.93;4.40;;;;;;;;;;5064954;28;20292;-52
2023/05/01 01:28:42;;;;;;;7.53;4.40;;;;;;;;;;5053943;28;20227;-52
2023/05/01 01:31:11;;;;;;;7.17;4.80;;;;;;;;;;5064759;28;20309;-52
2023/05/01 01:33:56;;;;;;;8.07;4.73;;;;;;;;;;5064561;28;20326;-53
2023/05/01 01:36:29;;;;;;;9.07;4.87;;;;;;;;;;5055821;28;20238;-51
2023/05/01 01:38:59;;;;;;;5.93;4.83;;;;;;;;;;5063590;28;20259;-53
2023/05/01 01:41:29;;;;;;;6.93;4.60;;;;;;;;;;5059804;28;20733;-53
2023/05/01 01:43:58;;;;;;;5.67;3.80;;;;;;;;;;5064918;28;20296;-53
2023/05/01 01:46:26;;;;;;;7.40;4.80;;;;;;;;;;5065095;28;20227;-52
2023/05/01 01:48:53;;;;;;;4.47;3.97;;;;;;;;;;5065537;28;20292;-53
2023/05/01 01:51:21;;;;;;;5.37;4.23;;;;;;;;;;5065212;28;20231;-52
2023/05/01 01:53:52;;;;;;;5.67;4.17;;;;;;;;;;5066063;28;20238;-52
2023/05/01 01:56:20;;;;;;;5.40;4.63;;;;;;;;;;5065928;28;20561;-53
2023/05/01 01:58:47;;;;;;;6.23;5.07;;;;;;;;;;5065880;28;20239;-52
2023/05/01 02:01:14;;;;;;;8.37;4.73;;;;;;;;;;5066846;28;20233;-53
2023/05/01 02:03:41;;;;;;;9.60;4.53;;;;;;;;;;5064326;28;20900;-52
2023/05/01 02:06:08;;;;;;;6.77;5.33;;;;;;;;;;5065886;28;20235;-53
2023/05/01 02:08:36;;;;;;;8.87;4.73;;;;;;;;;;5066051;28;20235;-51
2023/05/01 02:11:05;;;;;;;6.73;4.57;;;;;;;;;;5065274;28;20254;-51
2023/05/01 02:13:32;;;;;;;9.37;4.60;;;;;;;;;;5065911;28;20241;-59
2023/05/01 02:16:00;;;;;;;6.07;5.03;;;;;;;;;;5065014;28;20239;-53
2023/05/01 02:18:28;;;;;;;8.27;4.63;;;;;;;;;;5061908;28;20234;-52
2023/05/01 02:20:57;;;;;;;6.87;4.53;;;;;;;;;;5064816;28;20232;-52
2023/05/01 02:23:24;;;;;;;6.90;4.60;;;;;;;;;;5063690;28;20683;-51
2023/05/01 02:25:52;;;;;;;6.90;4.57;;;;;;;;;;5063849;28;20249;-53
2023/05/01 02:28:22;;;;;;;6.23;4.37;;;;;;;;;;5065591;28;20223;-52
2023/05/01 02:30:48;;;;;;;8.13;4.70;;;;;;;;;;5053011;28;20243;-51
2023/05/01 02:33:15;;;;;;;9.00;5.13;;;;;;;;;;5061857;28;20233;-53
2023/05/01 02:35:42;;;;;;;7.27;5.00;;;;;;;;;;5063799;28;20261;-52
2023/05/01 02:38:09;;;;;;;10.70;5.17;;;;;;;;;;5062215;28;20261;-52
2023/05/01 02:40:37;;;;;;;5.20;4.70;;;;;;;;;;5061965;28;20242;-54
2023/05/01 02:43:05;;;;;;;5.10;4.60;;;;;;;;;;5063080;28;20234;-50
2023/05/01 02:45:35;;;;;;;6.47;4.97;;;;;;;;;;5063705;28;20237;-52
2023/05/01 02:48:03;;;;;;;8.47;4.80;;;;;;;;;;5065035;28;20223;-51
2023/05/01 02:50:29;;;;;;;6.33;4.57;;;;;;;;;;5065081;28;20322;-53
2023/05/01 02:52:56;;;;;;;7.77;5.10;;;;;;;;;;5065267;28;20239;-53
2023/05/01 02:55:22;;;;;;;7.23;4.60;;;;;;;;;;5065177;28;20296;-53
2023/05/01 02:57:50;;;;;;;6.10;4.57;;;;;;;;;;5064763;28;20239;-53
2023/05/01 03:00:17;;;;;;;5.43;4.87;;;;;;;;;;5064953;28;20249;-52
2023/05/01 03:02:45;;;;;;;6.80;4.53;;;;;;;;;;5065889;28;20239;-52
2023/05/01 03:05:11;;;;;;;7.70;5.80;;;;;;;;;;5058242;28;20238;-52
2023/05/01 03:07:38;;;;;;;6.53;4.37;;;;;;;;;;5065321;28;20235;-52
2023/05/01 03:10:04;;;;;;;6.63;5.03;;;;;;;;;;5063690;28;20227;-52
2023/05/01 03:12:31;;;;;;;8.77;5.40;;;;;;;;;;5063182;28;20245;-53
2023/05/01 03:14:57;;;;;;;7.00;6.07;;;;;;;;;;5063570;28;20245;-53
2023/05/01 03:17:23;;;;;;;6.70;4.57;;;;;;;;;;5062507;28;20233;-53
2023/05/01 03:19:51;;;;;;;5.73;4.90;;;;;;;;;;5064200;28;20621;-52
2023/05/01 03:22:18;;;;;;;8.27;5.60;;;;;;;;;;5062755;28;20317;-54
2023/05/01 03:24:46;;;;;;;8.43;5.13;;;;;;;;;;5064841;28;20239;-52
2023/05/01 03:27:12;;;;;;;7.83;4.93;;;;;;;;;;5055340;28;20238;-52
2023/05/01 03:29:38;;;;;;;6.67;5.50;;;;;;;;;;5055233;28;20298;-52
2023/05/01 03:32:05;;;;;;;9.57;5.23;;;;;;;;;;5064090;28;20652;-53
2023/05/01 03:34:31;;;;;;;7.67;5.37;;;;;;;;;;5061833;28;20243;-52
2023/05/01 03:36:59;;;;;;;6.67;5.43;;;;;;;;;;5060639;28;20238;-52
2023/05/01 03:39:26;;;;;;;6.27;5.43;;;;;;;;;;5062320;28;20762;-52
2023/05/01 03:41:52;;;;;;;8.07;5.30;;;;;;;;;;5062668;28;20281;-53
2023/05/01 03:44:18;;;;;;;6.10;4.47;;;;;;;;;;5062748;28;20227;-53
2023/05/01 03:46:45;;;;;;;8.30;6.03;;;;;;;;;;5062536;28;20234;-52
2023/05/01 03:49:11;;;;;;;5.63;5.03;;;;;;;;;;5056961;28;20230;-51
2023/05/01 03:51:37;;;;;;;9.37;7.17;;;;;;;;;;5064247;28;20239;-52
2023/05/01 03:54:06;;;;;;;5.53;4.97;;;;;;;;;;5060422;28;20258;-52
2023/05/01 03:56:34;;;;;;;6.83;5.23;;;;;;;;;;5064376;28;20246;-52
2023/05/01 03:59:00;;;;;;;6.33;4.93;;;;;;;;;;5064027;28;20379;-52
2023/05/01 04:01:27;;;;;;;4.93;4.53;;;;;;;;;;5063173;28;20237;-53
2023/05/01 04:03:53;;;;;;;11.03;5.83;;;;;;;;;;5061353;28;20336;-52
2023/05/01 04:06:21;;;;;;;10.17;6.03;;;;;;;;;;5063673;28;20246;-52
2023/05/01 04:08:47;;;;;;;5.03;4.50;;;;;;;;;;5063440;28;20227;-53
2023/05/01 04:11:15;;;;;;;8.33;4.90;;;;;;;;;;5063942;28;20314;-53
2023/05/01 04:13:41;;;;;;;6.80;5.70;;;;;;;;;;5064677;28;20926;-52
2023/05/01 04:16:08;;;;;;;6.57;4.57;;;;;;;;;;5063538;28;20315;-53
2023/05/01 04:18:34;;;;;;;5.60;4.90;;;;;;;;;;5063660;28;20308;-53
2023/05/01 04:21:00;;;;;;;5.77;4.67;;;;;;;;;;5059681;28;20327;-52
2023/05/01 04:23:27;;;;;;;10.87;5.07;;;;;;;;;;5051059;28;20228;-52
2023/05/01 04:25:53;;;;;;;5.10;4.57;;;;;;;;;;5061447;28;20729;-53
2023/05/01 04:28:21;;;;;;;9.13;5.77;;;;;;;;;;5062655;28;20255;-52
2023/05/01 04:30:47;;;;;;;8.03;5.27;;;;;;;;;;5061381;28;20608;-52
2023/05/01 04:33:14;;;;;;;6.50;5.10;;;;;;;;;;5064055;28;20235;-52
2023/05/01 04:35:41;;;;;;;7.27;5.17;;;;;;;;;;5059000;28;20239;-52
2023/05/01 04:38:09;;;;;;;13.17;4.90;;;;;;;;;;5065334;28;20227;-51
2023/05/01 04:40:35;;;;;;;7.87;5.03;;;;;;;;;;5063501;28;20227;-52
2023/05/01 04:43:02;;;;;;;6.37;4.77;;;;;;;;;;5066412;28;20227;-53
2023/05/01 04:45:29;;;;;;;7.97;5.30;;;;;;;;;;5066129;28;20235;-52
2023/05/01 04:47:56;;;;;;;8.23;5.17;;;;;;;;;;5065131;28;20245;-52
2023/05/01 04:50:22;;;;;;;5.00;4.50;;;;;;;;;;5066744;28;20321;-52
2023/05/01 04:52:49;;;;;;;5.07;4.10;;;;;;;;;;5065600;28;20235;-52
2023/05/01 04:55:15;;;;;;;6.23;4.40;;;;;;;;;;5065754;28;20245;-52
2023/05/01 04:57:42;;;;;;;9.53;4.93;;;;;;;;;;5065692;28;20239;-52
2023/05/01 05:00:08;;;;;;;6.00;5.03;;;;;;;;;;5064672;28;20241;-52
2023/05/01 05:02:36;;;;;;;7.03;4.27;;;;;;;;;;5066505;28;20227;-52
2023/05/01 05:05:03;;;;;;;6.83;4.73;;;;;;;;;;5066917;28;20234;-53
2023/05/01 05:07:29;;;;;;;13.20;5.20;;;;;;;;;;5067376;28;20227;-52
2023/05/01 05:09:56;;;;;;;6.87;4.70;;;;;;;;;;5064956;28;20234;-52
2023/05/01 05:12:22;;;;;;;5.40;4.90;;;;;;;;;;5066925;28;20607;-52
2023/05/01 05:14:48;;;;;;;5.03;4.30;;;;;;;;;;5065799;28;20308;-52
2023/05/01 05:17:15;;;;;;;5.40;4.90;;;;;;;;;;5067413;28;20231;-52
2023/05/01 05:19:42;;;;;;;8.63;5.00;;;;;;;;;;5057822;28;20239;-52
2023/05/01 05:22:11;;;;;;;6.90;5.10;;;;;;;;;;5059191;28;20234;-51
2023/05/01 05:24:37;;;;;;;7.60;4.53;;;;;;;;;;5066862;28;20239;-52
2023/05/01 05:27:05;;;;;;;5.40;3.90;;;;;;;;;;5064839;28;20259;-52
2023/05/01 05:29:31;;;;;;;5.20;4.33;;;;;;;;;;5065742;28;20235;-53
2023/05/01 05:31:58;;;;;;;6.30;4.30;;;;;;;;;;5065308;28;20288;-52
2023/05/01 05:34:24;;;;;;;5.90;4.43;;;;;;;;;;5065973;28;20524;-52
2023/05/01 05:36:52;;;;;;;6.17;4.60;;;;;;;;;;5063638;28;20227;-52
2023/05/01 05:39:21;;;;;;;5.03;4.43;;;;;;;;;;5065608;28;20933;-52
2023/05/01 05:41:48;;;;;;;4.73;4.20;;;;;;;;;;5062851;28;20663;-52
2023/05/01 05:44:14;;;;;;;5.67;4.27;;;;;;;;;;5066041;28;20250;-53
2023/05/01 05:46:40;;;;;;;5.47;4.90;;;;;;;;;;5065355;28;20301;-53
2023/05/01 05:49:07;;;;;;;6.70;5.10;;;;;;;;;;5065774;28;20233;-51
2023/05/01 05:51:33;;;;;;;5.90;4.13;;;;;;;;;;5062778;28;20290;-52
2023/05/01 05:54:01;;;;;;;5.90;4.43;;;;;;;;;;5066906;28;20949;-53
2023/05/01 05:56:27;;;;;;;6.83;4.70;;;;;;;;;;5067027;28;20227;-52
2023/05/01 05:58:53;;;;;;;7.27;4.57;;;;;;;;;;5066423;28;20239;-52
2023/05/01 06:01:20;;;;;;;5.67;4.50;;;;;;;;;;5066219;28;20694;-52
2023/05/01 06:03:46;;;;;;;6.93;5.23;;;;;;;;;;5065238;28;20306;-52
2023/05/01 06:06:12;;;;;;;8.43;4.33;;;;;;;;;;5065277;28;20238;-52
2023/05/01 06:08:39;;;;;;;6.33;5.03;;;;;;;;;;5064914;28;20694;-52
2023/05/01 06:11:08;;;;;;;5.97;4.43;;;;;;;;;;5057244;28;20231;-52
2023/05/01 06:13:34;;;;;;;6.73;4.40;;;;;;;;;;5066356;28;20234;-53
2023/05/01 06:16:01;;;;;;;5.03;4.30;;;;;;;;;;5066062;28;20262;-50
2023/05/01 06:18:28;;;;;;;6.53;3.93;;;;;;;;;;5065818;28;20277;-50
2023/05/01 06:20:55;;;;;;;7.37;4.00;;;;;;;;;;5065450;28;20308;-53
2023/05/01 06:23:21;;;;;;;5.17;4.30;;;;;;;;;;5065871;28;20886;-52
2023/05/01 06:25:48;;;;;;;4.70;4.30;;;;;;;;;;5063745;28;20322;-52
2023/05/01 06:28:16;;;;;;;5.73;4.47;;;;;;;;;;5063224;28;20255;-53
2023/05/01 06:30:43;;;;;;;5.73;3.90;;;;;;;;;;5057862;28;20228;-51
2023/05/01 06:33:10;;;;;;;4.23;3.77;;;;;;;;;;5064801;28;20238;-51
2023/05/01 06:35:36;;;;;;;7.37;4.57;;;;;;;;;;5062026;28;20293;-53
2023/05/01 06:38:03;;;;;;;6.60;4.17;;;;;;;;;;5062668;28;20718;-50
2023/05/01 06:40:30;;;;;;;7.77;3.80;;;;;;;;;;5062449;28;20246;-51
2023/05/01 06:42:57;;;;;;;6.43;4.10;;;;;;;;;;5062418;28;20223;-52
2023/05/01 06:45:25;;;;;;;5.37;3.93;;;;;;;;;;5062829;28;20292;-51
2023/05/01 06:47:51;;;;;;;4.23;3.70;;;;;;;;;;5060191;28;20281;-50
2023/05/01 06:50:18;;;;;;;5.73;3.87;;;;;;;;;;5063597;28;20714;-52
2023/05/01 06:52:44;;;;;;;5.07;3.33;;;;;;;;;;5064257;28;20242;-50
2023/05/01 06:55:11;;;;;;;7.63;3.93;;;;;;;;;;5063041;28;20247;-51
2023/05/01 06:57:38;;;;;;;7.80;3.57;;;;;;;;;;5062523;28;20227;-51
2023/05/01 07:00:05;;;;;;;6.47;3.97;;;;;;;;;;5062041;28;20649;-52
2023/05/01 07:02:33;;;;;;;6.97;4.23;;;;;;;;;;5062405;28;20321;-51
2023/05/01 07:05:00;;;;;;;6.07;3.90;;;;;;;;;;5064339;28;20279;-52
2023/05/01 07:07:26;;;;;;;6.23;3.40;;;;;;;;;;5063409;28;20314;-53
2023/05/01 07:09:53;;;;;;;6.20;4.17;;;;;;;;;;5064642;28;20270;-52
2023/05/01 07:12:19;;;;;;;7.50;4.00;;;;;;;;;;5062301;28;20235;-51
2023/05/01 07:14:46;;;;;;;4.50;4.05;;;;;;;;;;5065090;28;20292;-52
2023/05/01 07:17:12;;;;;;;4.70;4.03;;;;;;;;;;5063199;28;20234;-52
2023/05/01 07:19:40;;;;;;;6.68;3.95;;;;;;;;;;5063200;28;20685;-51
2023/05/01 07:22:07;;;;;;;4.72;3.53;;;;;;;;;;5061808;28;20756;-51
2023/05/01 07:24:33;;;;;;;5.28;3.38;;;;;;;;;;5061595;28;20663;-52
2023/05/01 07:27:00;;;;;;;5.45;4.10;;;;;;;;;;5060040;28;20308;-52
2023/05/01 07:29:26;;;;;;;6.72;3.92;;;;;;;;;;5059862;28;20230;-51
2023/05/01 07:31:54;;;;;;;7.00;3.75;;;;;;;;;;5059944;28;20239;-52
2023/05/01 07:34:20;;;;;;;6.72;3.50;;;;;;;;;;5064076;28;20249;-52
2023/05/01 07:36:48;;;;;;;7.55;3.65;;;;;;;;;;5063672;28;20239;-52
2023/05/01 07:39:16;;;;;;;6.28;3.42;;;;;;;;;;5059667;28;20231;-52
2023/05/01 07:41:43;;;;;;;3.97;3.45;;;;;;;;;;5062364;28;20337;-52
2023/05/01 07:44:09;;;;;;;10.25;3.50;;;;;;;;;;5064187;28;20239;-52
2023/05/01 07:46:35;;;;;;;4.10;3.42;;;;;;;;;;5063216;28;20928;-51
2023/05/01 07:49:03;;;;;;;4.35;3.63;;;;;;;;;;5061871;28;20317;-50
2023/05/01 07:51:29;;;;;;;5.65;3.78;;;;;;;;;;5063739;28;20230;-53
2023/05/01 07:53:57;;;;;;;4.72;3.28;;;;;;;;;;5063855;28;20239;-52
2023/05/01 07:56:24;;;;;;;3.75;2.85;;;;;;;;;;5063248;28;20458;-52
2023/05/01 07:58:50;;;;;;;5.20;3.10;;;;;;;;;;5062140;28;20326;-52
2023/05/01 08:01:17;;;;;;;6.85;3.22;;;;;;;;;;5063692;28;20285;-52
2023/05/01 08:03:43;;;;;;;7.15;3.38;;;;;;;;;;5062428;28;20977;-52
2023/05/01 08:06:09;;;;;;;4.32;3.28;;;;;;;;;;5062229;28;20274;-51
2023/05/01 08:08:36;;;;;;;8.60;3.90;;;;;;;;;;5063400;28;20314;-51
2023/05/01 08:11:03;;;;;;;7.90;3.30;;;;;;;;;;5062346;28;20219;-52
2023/05/01 08:13:30;;;;;;;7.80;3.42;;;;;;;;;;5064083;28;20234;-52
2023/05/01 08:16:00;;;;;;;7.22;4.15;;;;;;;;;;5066203;28;20241;-52
2023/05/01 08:18:26;;;;;;;3.20;2.90;;;;;;;;;;5062442;28;20702;-52
2023/05/01 08:20:53;;;;;;;6.03;3.28;;;;;;;;;;5065593;28;20308;-53
2023/05/01 08:23:20;;;;;;;4.75;2.92;;;;;;;;;;5067984;28;20239;-52
2023/05/01 08:25:49;;;;;;;4.00;2.90;;;;;;;;;;5067511;28;20243;-53
2023/05/01 08:28:19;;;;;;;7.82;3.65;;;;;;;;;;5067579;28;20230;-53
2023/05/01 08:30:47;;;;;;;6.32;3.53;;;;;;;;;;5067227;28;20270;-52
2023/05/01 08:33:15;;;;;;;8.95;3.13;;;;;;;;;;5067774;28;20231;-52
2023/05/01 08:35:41;;;;;;;5.57;3.65;;;;;;;;;;5066205;28;20666;-51
2023/05/01 08:38:07;;;;;;;3.90;3.33;;;;;;;;;;5061308;28;20292;-52
2023/05/01 08:40:36;;;;;;;5.35;2.88;;;;;;;;;;5066846;28;20231;-53
2023/05/01 08:43:03;;;;;;;4.70;3.00;;;;;;;;;;5067018;28;20219;-53
2023/05/01 08:45:34;;;;;;;3.60;2.53;;;;;;;;;;5061309;28;20309;-52
2023/05/01 08:48:02;;;;;;;5.30;3.10;;;;;;;;;;5065578;28;20236;-53
2023/05/01 08:50:29;;;;;;;3.28;2.47;;;;;;;;;;5065680;28;20344;-52
2023/05/01 08:52:57;;;;;;;3.83;2.70;;;;;;;;;;5064026;28;20240;-54
2023/05/01 08:55:26;;;;;;;6.40;2.80;;;;;;;;;;5064719;28;20263;-53
2023/05/01 08:57:52;;;;;;;5.55;2.97;;;;;;;;;;5065648;28;20720;-53
2023/05/01 09:00:20;;;;;;;4.05;3.03;;;;;;;;;;5066243;28;20235;-52
2023/05/01 09:02:49;;;;;;;3.83;2.75;;;;;;;;;;5060069;28;20242;-52
2023/05/01 09:05:15;;;;;;;5.10;2.80;;;;;;;;;;5065189;28;20231;-51
2023/05/01 09:07:42;;;;;;;4.40;2.63;;;;;;;;;;5062018;28;20247;-51
2023/05/01 09:10:09;;;;;;;3.47;2.42;;;;;;;;;;5062828;28;20223;-52
2023/05/01 09:12:36;;;;;;;3.88;1.98;;;;;;;;;;5064790;28;20328;-53
2023/05/01 09:15:03;;;;;;;3.92;2.63;;;;;;;;;;5065155;28;20783;-52
2023/05/01 09:17:31;;;;;;;4.45;2.35;;;;;;;;;;5061260;28;20256;-51
2023/05/01 09:20:01;;;;;;;3.90;2.97;;;;;;;;;;5062815;28;20230;-53
2023/05/01 09:22:30;;;;;;;4.43;3.10;;;;;;;;;;5063918;28;20249;-51
2023/05/01 09:24:56;;;;;;;4.88;2.60;;;;;;;;;;5060442;28;20239;-53
2023/05/01 09:27:23;;;;;;;3.88;2.58;;;;;;;;;;5065233;28;20227;-52
2023/05/01 09:29:49;;;;;;;4.78;2.58;;;;;;;;;;5059838;28;20321;-52
2023/05/01 09:32:16;;;;;;;6.93;3.13;;;;;;;;;;5058274;28;20252;-52
2023/05/01 09:34:43;;;;;;;9.95;3.30;;;;;;;;;;5060975;28;20231;-53
2023/05/01 09:37:12;;;;;;;5.00;2.33;;;;;;;;;;5064380;28;20226;-51
2023/05/01 09:39:38;;;;;;;6.63;2.88;;;;;;;;;;5064355;28;20227;-52
2023/05/01 09:42:05;;;;;;;4.15;2.13;;;;;;;;;;5064168;28;20238;-53
2023/05/01 09:44:31;;;;;;;3.67;2.63;;;;;;;;;;5064040;28;20241;-52
2023/05/01 09:46:58;;;;;;;3.58;2.55;;;;;;;;;;5065525;28;20259;-52
2023/05/01 09:49:39;;;;;;;5.50;3.42;;;;;;;;;;5061428;28;20255;-52
2023/05/01 09:52:14;;;;;;;6.43;3.70;;;;;;;;;;5062398;28;20777;-52
2023/05/01 09:54:40;;;;;;;6.70;3.38;;;;;;;;;;5062710;28;20243;-50
2023/05/01 09:57:07;;;;;;;6.18;3.17;;;;;;;;;;5063836;28;20238;-51
2023/05/01 09:59:34;;;;;;;3.70;2.33;;;;;;;;;;5062174;28;20774;-52
2023/05/01 10:02:00;;;;;;;4.07;3.17;;;;;;;;;;5064054;28;20254;-51
2023/05/01 10:04:31;;;;;;;3.47;2.90;;;;;;;;;;5065157;28;20603;-52
2023/05/01 10:06:57;;;;;;;6.68;2.83;;;;;;;;;;5064860;28;20293;-52
2023/05/01 10:09:29;;;;;;;5.53;3.05;;;;;;;;;;5064320;28;20234;-52
2023/05/01 10:11:56;;;;;;;7.50;3.38;;;;;;;;;;5064483;28;20239;-51
2023/05/01 10:14:25;;;;;;;4.97;2.72;;;;;;;;;;5064558;28;20330;-51
2023/05/01 10:16:52;;;;;;;6.28;3.13;;;;;;;;;;5062696;28;20310;-51
2023/05/01 10:19:19;;;;;;;4.47;2.92;;;;;;;;;;5061775;28;20231;-51
2023/05/01 10:21:46;;;;;;;3.45;2.85;;;;;;;;;;5063946;28;20227;-52
2023/05/01 10:24:14;;;;;;;3.40;2.92;;;;;;;;;;5062309;28;20722;-52
2023/05/01 10:26:42;;;;;;;7.35;4.03;;;;;;;;;;5060803;28;20245;-52
2023/05/01 10:29:09;;;;;;;4.55;3.10;;;;;;;;;;5059881;28;20234;-51
2023/05/01 10:31:35;;;;;;;4.82;2.90;;;;;;;;;;5064330;28;20237;-51
2023/05/01 10:34:02;;;;;;;4.40;3.30;;;;;;;;;;5063965;28;20234;-51
2023/05/01 10:36:32;;;;;;;5.95;2.90;;;;;;;;;;5062885;28;20245;-52
2023/05/01 10:38:59;;;;;;;4.35;3.08;;;;;;;;;;5062293;28;20957;-52
2023/05/01 10:41:53;;;;;;;3.80;3.05;;;;;;;;;;5063101;28;20243;-52
2023/05/01 10:44:22;;;;;;;7.07;3.13;;;;;;;;;;5059075;28;20738;-51
2023/05/01 10:46:48;;;;;;;6.68;3.58;;;;;;;;;;5060851;28;20310;-51
2023/05/01 10:49:15;;;;;;;8.35;3.90;;;;;;;;;;5062102;28;20238;-51
2023/05/01 10:51:56;;;;;;;5.90;3.72;;;;;;;;;;5064520;28;20239;-50
2023/05/01 10:54:26;;;;;;;5.28;3.35;;;;;;;;;;5062804;28;20312;-50
2023/05/01 10:56:53;;;;;;;8.10;3.60;;;;;;;;;;5063025;28;20231;-51
2023/05/01 10:59:21;;;;;;;6.55;3.03;;;;;;;;;;5063341;28;20246;-51
2023/05/01 11:01:50;;;;;;;5.10;3.50;;;;;;;;;;5064519;28;20234;-51
2023/05/01 11:04:49;;;;;;;5.32;3.55;;;;;;;;;;5062038;28;20713;-52
2023/05/01 11:07:19;;;;;;;3.67;3.38;;;;;;;;;;4998344;28;20288;-51
2023/05/01 11:09:47;;;;;;;5.43;3.50;;;;;;;;;;5048956;28;20320;-53
2023/05/01 11:12:15;;;;;;;3.90;3.22;;;;;;;;;;5061865;28;20321;-52
2023/05/01 11:15:02;;;;;;;5.78;3.25;;;;;;;;;;5063718;28;20242;-53
2023/05/01 11:17:43;;;;;;;4.38;3.13;;;;;;;;;;5063636;28;20237;-54
2023/05/01 11:20:11;;;;;;;8.30;4.20;;;;;;;;;;5056354;28;20859;-52
2023/05/01 11:22:38;;;;;;;5.10;3.15;;;;;;;;;;5058921;28;20730;-54
2023/05/01 11:25:17;;;;;;;4.13;3.72;;;;;;;;;;5063466;28;20672;-53
2023/05/01 11:27:46;;;;;;;4.78;3.45;;;;;;;;;;5060959;28;20235;-53
2023/05/01 11:30:12;;;;;;;5.07;3.63;;;;;;;;;;5062049;28;20231;-52
2023/05/01 11:32:43;;;;;;;6.78;4.28;;;;;;;;;;5062804;28;20224;-51
2023/05/01 11:35:16;;;;;;;4.13;3.15;;;;;;;;;;5059119;28;20744;-51
2023/05/01 11:37:43;;;;;;;8.38;3.85;;;;;;;;;;5061217;28;20230;-52
2023/05/01 11:40:18;;;;;;;5.20;3.75;;;;;;;;;;5061070;28;20661;-51
2023/05/01 11:42:45;;;;;;;4.07;3.00;;;;;;;;;;5060643;28;20234;-51
2023/05/01 11:45:12;;;;;;;5.78;3.65;;;;;;;;;;5061307;28;20258;-51
2023/05/01 11:47:38;;;;;;;4.28;3.33;;;;;;;;;;5064383;28;20262;-50
2023/05/01 11:50:05;;;;;;;5.97;3.30;;;;;;;;;;5063501;28;20318;-51
2023/05/01 11:52:42;;;;;;;4.95;3.55;;;;;;;;;;5066464;28;20250;-51
2023/05/01 11:55:10;;;;;;;4.25;3.60;;;;;;;;;;5064494;28;20234;-51
2023/05/01 11:57:45;;;;;;;4.88;3.97;;;;;;;;;;5064323;28;20230;-52
2023/05/01 12:00:12;;;;;;;3.80;3.20;;;;;;;;;;5064120;28;20266;-54
2023/05/01 12:02:38;;;;;;;5.15;3.47;;;;;;;;;;5062872;28;20227;-51
2023/05/01 12:05:14;;;;;;;6.20;3.47;;;;;;;;;;5066142;28;20230;-51
2023/05/01 12:07:42;;;;;;;7.43;4.10;;;;;;;;;;5061503;28;20330;-52
2023/05/01 12:10:09;;;;;;;6.00;3.83;;;;;;;;;;5063047;28;20765;-52
2023/05/01 12:12:36;;;;;;;4.28;3.90;;;;;;;;;;5063994;28;20322;-51
2023/05/01 12:15:02;;;;;;;5.97;4.40;;;;;;;;;;5064454;28;20630;-52
2023/05/01 12:17:29;;;;;;;5.03;3.60;;;;;;;;;;5061771;28;20326;-50
2023/05/01 12:19:55;;;;;;;6.43;3.88;;;;;;;;;;5065413;28;20254;-51
2023/05/01 12:22:22;;;;;;;4.30;3.50;;;;;;;;;;5064511;28;20223;-51
2023/05/01 12:24:51;;;;;;;5.90;3.88;;;;;;;;;;5062599;28;20232;-51
2023/05/01 12:27:17;;;;;;;3.38;3.08;;;;;;;;;;5065440;28;20227;-52
2023/05/01 12:29:46;;;;;;;4.70;3.67;;;;;;;;;;5060911;28;20313;-52
2023/05/01 12:32:12;;;;;;;5.45;3.40;;;;;;;;;;5065303;28;20239;-55
2023/05/01 12:34:39;;;;;;;5.65;3.45;;;;;;;;;;5062950;28;20338;-52
2023/05/01 12:37:06;;;;;;;4.57;3.60;;;;;;;;;;5065440;28;20235;-52
2023/05/01 12:39:37;;;;;;;5.00;3.25;;;;;;;;;;5062956;28;20250;-51
2023/05/01 12:42:11;;;;;;;4.47;3.83;;;;;;;;;;5063730;28;21094;-52
2023/05/01 12:44:37;;;;;;;6.60;4.43;;;;;;;;;;5064377;28;20257;-50
2023/05/01 12:47:05;;;;;;;4.20;3.80;;;;;;;;;;5064526;28;20227;-53
2023/05/01 12:49:31;;;;;;;5.28;4.30;;;;;;;;;;5062147;28;20231;-52
2023/05/01 12:51:59;;;;;;;5.50;4.18;;;;;;;;;;5064222;28;20726;-52
2023/05/01 12:54:27;;;;;;;4.63;4.13;;;;;;;;;;5065517;28;20719;-51
2023/05/01 12:56:54;;;;;;;6.70;3.65;;;;;;;;;;5065321;28;20314;-52
2023/05/01 12:59:22;;;;;;;5.13;4.20;;;;;;;;;;5062150;28;20219;-52
2023/05/01 13:01:49;;;;;;;4.10;3.58;;;;;;;;;;5065328;28;20223;-51
2023/05/01 13:04:20;;;;;;;8.00;3.58;;;;;;;;;;5062858;28;20235;-52
2023/05/01 13:06:47;;;;;;;5.82;3.65;;;;;;;;;;5066120;28;20314;-52
2023/05/01 13:09:14;;;;;;;5.60;4.05;;;;;;;;;;5062378;28;20317;-52
2023/05/01 13:11:40;;;;;;;11.68;9.27;;;;;;;;;;5064625;28;21668;-52
2023/05/01 13:14:07;;;;;;;6.85;4.45;;;;;;;;;;5064386;28;20707;-52
2023/05/01 13:16:43;;;;;;;7.30;3.65;;;;;;;;;;5063757;28;20714;-51
2023/05/01 13:19:09;;;;;;;6.57;3.53;;;;;;;;;;5062247;28;20241;-51
2023/05/01 13:21:36;;;;;;;6.45;3.90;;;;;;;;;;5064722;28;20676;-51
2023/05/01 13:24:02;;;;;;;4.68;3.50;;;;;;;;;;5064301;28;20229;-52
2023/05/01 13:26:30;;;;;;;6.18;4.18;;;;;;;;;;5064200;28;20234;-52
2023/05/01 13:28:58;;;;;;;4.53;3.65;;;;;;;;;;5063710;28;20911;-51
2023/05/01 13:31:25;;;;;;;4.55;4.07;;;;;;;;;;5062888;28;20239;-53
2023/05/01 13:33:53;;;;;;;4.30;3.90;;;;;;;;;;5063991;28;20227;-51
2023/05/01 13:36:20;;;;;;;5.47;4.43;;;;;;;;;;5060890;28;20663;-52
2023/05/01 13:38:48;;;;;;;4.28;3.88;;;;;;;;;;5063236;28;20235;-51
2023/05/01 13:41:16;;;;;;;4.78;3.90;;;;;;;;;;5059903;28;20254;-52
2023/05/01 13:43:43;;;;;;;6.57;3.85;;;;;;;;;;5063448;28;20806;-51
2023/05/01 13:46:10;;;;;;;4.20;3.80;;;;;;;;;;5061260;28;20235;-52
2023/05/01 13:48:37;;;;;;;5.88;4.13;;;;;;;;;;5063254;28;20314;-52
2023/05/01 13:51:05;;;;;;;5.63;3.65;;;;;;;;;;5062837;28;20724;-53
2023/05/01 13:53:32;;;;;;;5.13;3.58;;;;;;;;;;5064023;28;20227;-52
2023/05/01 13:55:58;;;;;;;4.90;4.32;;;;;;;;;;5062615;28;20279;-51
2023/05/01 13:58:24;;;;;;;18.38;5.18;;;;;;;;;;5062529;28;20314;-52
2023/05/01 14:00:51;;;;;;;13.05;4.88;;;;;;;;;;5065792;28;20231;-51
2023/05/01 14:03:18;;;;;;;15.60;5.65;;;;;;;;;;5064678;28;20357;-51
2023/05/01 14:05:44;;;;;;;9.68;4.05;;;;;;;;;;5064521;28;20231;-52
2023/05/01 14:08:13;;;;;;;5.78;4.40;;;;;;;;;;5067128;28;20227;-51
2023/05/01 14:10:40;;;;;;;5.78;3.88;;;;;;;;;;5065481;28;20347;-52
2023/05/01 14:13:06;;;;;;;5.07;3.90;;;;;;;;;;5058031;28;20318;-51
2023/05/01 14:15:33;;;;;;;5.43;4.88;;;;;;;;;;5065006;28;20247;-52
2023/05/01 14:18:04;;;;;;;6.15;4.72;;;;;;;;;;5065824;28;20310;-51
2023/05/01 14:20:30;;;;;;;4.85;4.35;;;;;;;;;;5066208;28;20706;-52
2023/05/01 14:22:57;;;;;;;6.47;4.15;;;;;;;;;;5065415;28;20232;-52
2023/05/01 14:25:26;;;;;;;5.72;4.57;;;;;;;;;;5061351;28;20314;-51
2023/05/01 14:27:53;;;;;;;7.32;4.70;;;;;;;;;;5066094;28;20231;-53
2023/05/01 14:30:24;;;;;;;8.27;4.53;;;;;;;;;;5066105;28;20506;-52
2023/05/01 14:32:51;;;;;;;7.22;4.82;;;;;;;;;;5063815;28;20250;-52
2023/05/01 14:35:19;;;;;;;5.28;4.18;;;;;;;;;;5058111;28;20246;-51
2023/05/01 14:37:46;;;;;;;6.45;4.45;;;;;;;;;;5062752;28;20224;-53
2023/05/01 14:40:13;;;;;;;8.73;5.22;;;;;;;;;;5062654;28;20243;-53
2023/05/01 14:42:43;;;;;;;5.13;4.60;;;;;;;;;;5061569;28;20235;-52
2023/05/01 14:45:10;;;;;;;6.07;4.97;;;;;;;;;;5063151;28;22101;-52
2023/05/01 14:47:38;;;;;;;5.50;4.72;;;;;;;;;;5064151;28;20699;-51